Tusculum College, Tennessee
Current Conditions -  °F | °C
As of 5:35 PM on Monday 26 Jan 2015 (Local Time) from KMOR Reporting Station
Scattered Clouds Scattered Clouds  
Wind Chill: 24°   Ceiling: Unl
Heat Index: 30°   Visibility: 10mi
Dew Point: 27°   Wind: 6mph
Humidity: 86%   Direction: 280°W
Pressure: 29.89"   Gusts: NA
Location:  36.1512°N, 82.8404°W
Report Text: KMOR 262235Z AUTO 28005KT 10SM SCT018 M01/M03 A2989 RMK
Loading
Personal Weather Stations






























Interactive Weather Map New forecast layout! Learn more

10-Day Weather Forecast

Advertisements
Track Severe Weather on mobile